Home > Products > Valid Products > MTR

000
SAUS42 KCHS 260857
MTRNBC
METAR KNBC 260856Z AUTO 31011KT 2SM -RA BR OVC004 13/12 A2984 RMK
AO2 SFC VIS 3 CIG 003V007 SLP106 P0003 60016 T01280117 53004





000
SAUS42 KCHS 260757
MTRNBC
METAR KNBC 260756Z AUTO 30010KT 2SM -RA BR BKN007 OVC012 15/14 A2983
RMK AO2 SFC VIS 3 CIG 004V011 SLP100 P0004 T01500144





000
SAUS42 KCHS 260754
MTRNBC
SPECI KNBC 260753Z AUTO 30011KT 2SM -RA BR BKN007 OVC012 15/14 A2983
RMK AO2 SFC VIS 3 CIG 004V011 P0004





000
SAUS42 KCHS 260741
MTRNBC
SPECI KNBC 260740Z AUTO 31013KT 2SM -RA BKN004 OVC025 15/14 A2982
RMK AO2 SFC VIS 7 CIG 003V011 P0003 T01500144





000
SAUS42 KCHS 260733
MTRNBC
SPECI KNBC 260732Z AUTO 32015KT 2SM -RA BR SCT004 BKN008 OVC029
15/14 A2982 RMK AO2 SFC VIS 5 P0003 T01500144





000
SAUS42 KCHS 260724
MTRNBC
SPECI KNBC 260723Z AUTO 33008KT 2SM -RA BR BKN005 OVC029 15/14 A2981
RMK AO2 SFC VIS 4 P0003 T01500144





000
SAUS42 KCHS 260705
MTRNBC
SPECI KNBC 260704Z AUTO 33012KT 2SM -RA BR SCT004 BKN011 OVC029
15/14 A2983 RMK AO2 SFC VIS 3 P0001 T01500144





000
SAUS42 KCHS 260657
MTRNBC
METAR KNBC 260656Z AUTO 31010KT 2SM -RA BR BKN004 BKN010 OVC015
15/14 A2983 RMK AO2 SFC VIS 3 SLP102 P0009 T01500144





000
SAUS42 KCHS 260629
MTRNBC
SPECI KNBC 260628Z AUTO 32009KT 2SM -RA BR BKN004 OVC015 16/14 A2984
RMK AO2 SFC VIS 2 1/2 CIG 002V007 P0006 T01560144





000
SAUS42 KCHS 260558
MTRNBC
METAR KNBC 260556Z AUTO 32008KT 2SM -RA BR BKN005 OVC018 15/14 A2984
RMK AO2 SFC VIS 3 SLP105 P0016 60036 T01500144 10161 20150 56025





000
SAUS42 KCHS 260553
MTRNBC
SPECI KNBC 260552Z AUTO 33008KT 2SM -RA BR SCT005 BKN018 OVC028
15/14 A2984 RMK AO2 P0016





000
SAUS42 KCHS 260523
MTRNBC
SPECI KNBC 260522Z 34009KT 2SM -RA BR BKN005 OVC018 16/14 A2985 RMK
AO2 SFC VIS 3 P0003 T01560144





000
SAUS42 KCHS 260507
MTRNBC
SPECI KNBC 260506Z 35010KT 2SM -RA BR SCT005 OVC019 16/14 A2986 RMK
AO2 SFC VIS 5 P0001 T01560144





000
SAUS42 KCHS 260457
MTRNBC
METAR KNBC 260456Z 35009KT 2SM -RA BR BKN005 OVC019 16/14 A2987 RMK
AO2 SFC VIS 4 SLP114 P0001 T01560144 401780156





000
SAUS42 KCHS 260416
MTRNBC
SPECI KNBC 260414Z 35009KT 2SM -RA SCT005 BKN017 OVC022 16/14 A2989
RMK AO2 SFC VIS 7 P0000 T01560144





000
SAUS42 KCHS 260404
MTRNBC
SPECI KNBC 260403Z 35011KT 2SM -RA BR BKN006 BKN015 OVC023 16/14
A2990 RMK AO2 SFC VIS 5 CIG 003V007 PRESFR P0000 T01560144





000
SAUS42 KCHS 260357
MTRNBC
METAR KNBC 260356Z 35009KT 2SM -RA BR SCT006 BKN010 OVC019 16/14
A2992 RMK AO2 SFC VIS 6 SLP130 P0003 T01560144





000
SAUS42 KCHS 260357
MTRNBC
METAR KNBC 260356Z 35009KT 2SM -RA BR SCT006 BKN010 OVC019 16/14
A2992 RMK AO2 SFC VIS 6 SLP130 P0003 T01560144





000
SAUS42 KCHS 260334
MTRNBC
SPECI KNBC 260333Z 34008KT 2SM -RA BR SCT008 BKN013 OVC019 16/14
A2993 RMK AO2 SFC VIS 4 P0002 T01560144





000
SAUS42 KCHS 260257
MTRNBC
METAR KNBC 260256Z 33008KT 2SM -RA BR SCT009 BKN017 OVC022 16/14
A2997 RMK AO2 SFC VIS 6 SLP150 P0006 60016 T01560144 55012





000
SAUS42 KCHS 260230
MTRNBC
SPECI KNBC 260229Z 02007KT 2SM -RA BR FEW012 BKN024 OVC043 16/14
A2996 RMK AO2 SFC VIS 5 P0003 T01560144





000
SAUS42 KCHS 260157
MTRNBC
METAR KNBC 260156Z 02007KT 2SM -RA BR FEW019 OVC046 16/14 A2997 RMK
AO2 SFC VIS 4 SLP149 P0005 T01610144





000
SAUS42 KCHS 260057
MTRNBC
METAR KNBC 260056Z 07005KT 2SM RA BR FEW009 BKN055 OVC095 16/15
A3000 RMK AO2 SFC VIS 5 RAB12 SLP159 P0005 T01610150





000
SAUS42 KCHS 260047
MTRNBC
SPECI KNBC 260046Z 07007KT 2SM -RA BR SCT009 BKN055 OVC095 16/15
A3001 RMK AO2 SFC VIS 5 RAB12 P0005 T01610150





000
SAUS42 KCHS 252357
MTRNBC
METAR KNBC 252356Z 36004KT 2SM BR BKN050 OVC060 17/16 A3001 RMK AO2
SFC VIS 5 RAE54 SLP162 P0002 60008 T01670156 10178 20167 51009





000
SAUS42 KCHS 252257
MTRNBC
METAR KNBC 252256Z 00000KT 2SM -RA BR BKN006 OVC055 17/16 A3000 RMK
AO2 SFC VIS 3 SLP160 P0004 T01720161





000
SAUS42 KCHS 252215
MTRNBC
SPECI KNBC 252214Z 33007KT 2SM -RA BR BKN004 OVC008 17/16 A2999 RMK
AO2 SFC VIS 3 P0003 T01720161





000
SAUS42 KCHS 252158
MTRNBC
METAR KNBC 252156Z 33005KT 2SM -RA BR BKN006 BKN034 OVC065 17/17
A3000 RMK AO2 SFC VIS 3 SLP160 P0002 T01720167





000
SAUS42 KCHS 252158
MTRNBC
METAR KNBC 252156Z 33005KT 2SM -RA BR BKN006 BKN034 OVC065 17/17
A3000 RMK AO2 SFC VIS 3 SLP160 P0002 T01720167





000
SAUS42 KCHS 252143
MTRNBC
SPECI KNBC 252142Z 01003KT 2SM -RA BR BKN006 BKN034 OVC065 18/17
A3000 RMK AO2 SFC VIS 6 P0001 T01780167





000
SAUS42 KCHS 252143
MTRNBC
SPECI KNBC 252142Z 01003KT 2SM -RA BR BKN006 BKN034 OVC065 18/17
A3000 RMK AO2 SFC VIS 6 P0001 T01780167





000
SAUS42 KCHS 252057
MTRNBC
METAR KNBC 252056Z 34004KT 2SM -RA BR SCT005 OVC070 18/17 A2998 RMK
AO2 SFC VIS 4 RAB24E35B54 SLP153 P0000 60000 T01780167 56009





000
SAUS42 KCHS 251957
MTRNBC
METAR KNBC 251956Z 00000KT 2SM FEW002 BKN010 OVC075 17/16 A2999 RMK
AO2 SFC VIS 7 SLP155 T01720161





000
SAUS42 KCHS 251933
MTRNBC
SPECI KNBC 251932Z 03003KT 2SM BKN012 OVC075 18/17 A2999 RMK AO2 SFC
VIS 10 T01780167





000
SAUS42 KCHS 251857
MTRNBC
METAR KNBC 251856Z 32004KT 2SM BKN007 OVC080 18/16 A3001 RMK AO2 SFC
VIS 10 SLP162 T01780161





000
SAUS42 KCHS 251757
MTRNBC
METAR KNBC 251756Z 08003KT 2SM BR FEW002 OVC008 17/16 A3001 RMK AO2
SFC VIS 4 RAE00 CIG 005V010 SLP161 P0000 60053 T01720161 10178 20161
58024





000
SAUS42 KCHS 251657
MTRNBC
METAR KNBC 251656Z 12003KT 2SM -RA BR FEW003 BKN019 OVC095 17/16
A3006 RMK AO2 SFC VIS 3 SLP178 P0003 T01720161





000
SAUS42 KCHS 251657
MTRNBC
METAR KNBC 251656Z 12003KT 2SM -RA BR FEW003 BKN019 OVC095 17/16
A3006 RMK AO2 SFC VIS 3 SLP178 P0003 T01720161





000
SAUS42 KCHS 251607
MTRNBC
SPECI KNBC 251606Z 23004KT 2SM -RA BR FEW003 BKN019 OVC095 17/16
A3011 RMK AO2 SFC VIS 4 P0001 T01720161





000
SAUS42 KCHS 251557
MTRNBC
METAR KNBC 251556Z 24004KT 2SM -RA BR FEW003 SCT019 OVC095 17/16
A3010 RMK AO2 SFC VIS 4 SLP194 P0001 T01670161





000
SAUS42 KCHS 251536
MTRNBC
SPECI KNBC 251534Z 24005KT 2SM -RA BR FEW003 SCT075 OVC090 17/16
A3009 RMK AO2 SFC VIS 5 P0001 T01670156





000
SAUS42 KCHS 251457
MTRNBC
METAR KNBC 251456Z 15003KT 2SM -RA BR FEW050 FEW070 OVC090 16/16
A3008 RMK AO2 SFC VIS 3 SLP185 P0006 60049 T01610156 53010





000
SAUS42 KCHS 251357
MTRNBC
METAR KNBC 251356Z 00000KT 2SM -RA BR SCT004 BKN065 OVC085 16/16
A3006 RMK AO2 SFC VIS 3 SLP180 P0014 T01610161





000
SAUS42 KCHS 251315
MTRNBC
SPECI KNBC 251313Z 15003KT 2SM RA BR FEW008 BKN050 OVC070 16/16
A3006 RMK AO2 SFC VIS 3 P0006 T01610156





000
SAUS42 KCHS 251305
MTRNBC
SPECI KNBC 251303Z 00000KT 1 1/4SM +RA BR BKN050 OVC070 16/16 A3007
RMK AO2 TWR VIS 2 P0003 T01610156





000
SAUS42 KCHS 251258
MTRNBC
METAR KNBC 251256Z 16004KT 2SM RA BR BKN028CB OVC050 16/16 A3006 RMK
AO2 SFC VIS 3 TSE29 SLP178 P0029 T01610156





000
SAUS42 KCHS 251243
MTRNBC
SPECI KNBC 251241Z 00000KT 2SM +RA BR BKN028CB OVC050 16/16 A3004
RMK AO2 SFC VIS 3 TSE29 P0022 T01610156





000
SAUS42 KCHS 251237
MTRNBC
SPECI KNBC 251235Z 16003KT 1SM +RA BR BKN028CB OVC050 16/16 A3005
RMK AO2 TWR VIS 1 1/2 TSE29 P0020 T01610156





000
SAUS42 KCHS 251206
MTRNBC
SPECI KNBC 251205Z 17003KT 1 1/2SM +TSRA BR BKN028CB OVC050 16/16
A3004 RMK AO2 SFC VIS 2 1/2 P0005 T01610156





000
SAUS42 KCHS 251159
MTRNBC
SPECI KNBC 251158Z 24006KT 1 3/4SM +TSRA BR FEW004 BKN036 OVC070
16/16 A3004 RMK AO2 PRESFR P0001 T01610156





000
SAUS42 KCHS 251158
MTRNBC
METAR KNBC 251156Z 23006KT 1 1/4SM TSRA BR BKN028CB OVC050 16/16
A3005 RMK AO2 TSB22 PRESFR SLP174 FRQ LTGICCCCA OVHD CB OVHD SW MOV
NE P0069 60127 70159 T01610156 10172 20161 53020





000
SAUS42 KCHS 251146
MTRNBC
SPECI KNBC 251145Z 21003KT 3/4SM +TSRA BR BKN028CB OVC050 17/16
A3006 RMK AO2 TSB22 OCNL LTGICCCCA VC CB VC SW MOV NE P0060
T01670161





000
SAUS42 KCHS 251144
MTRNBC
SPECI KNBC 251143Z 21004KT 3/4SM +TSRA BR BKN028CB OVC050 17/17
A3007 RMK AO2 TSB22 OCNL LTGICCCCA VC CB VC SW MOV NE FIRST P0056
T01720167





000
SAUS42 KCHS 251134
MTRNBC
SPECI KNBC 251133Z VRB05KT 3/4SM +TSRA BR BKN028CB OVC050 17/16
A3004 RMK AO2 TSB22 OCNL LTGICCCCA VC FIRST P0040 T01720161





000
SAUS42 KCHS 251131
MTRNBC
SPECI KNBC 251130Z 29006KT 1SM +TSRA BR BKN028 OVC050 17/16 A3004
RMK AO2 TSB22 P0034 T01720161





000
SAUS42 KCHS 251129
MTRNBC
SPECI KNBC 251128Z 26007KT 1 1/4SM +TSRA BR BKN032 OVC050 17/16
A3002 RMK AO2 TSB22 P0028 T01720161





000
SAUS42 KCHS 251122
MTRNBC
SPECI KNBC 251121Z AUTO 24003KT 1SM +RA BR SCT033 BKN047 OVC055
17/17 A3003 RMK AO2 PRESRR P0015 T01720167





000
SAUS42 KCHS 251116
MTRNBC
SPECI KNBC 251114Z AUTO 20004KT 1 3/4SM +RA BR FEW027 BKN048 OVC055
17/17 A3001 RMK AO2 P0009 T01720167





000
SAUS42 KCHS 251057
MTRNBC
METAR KNBC 251056Z AUTO 25003KT 4SM -RA BR OVC055 17/17 A3000 RMK
AO2 RAB0957 TSB05E20 SLP159 P0057 T01720167





000
SAUS42 KCHS 251057
MTRNBC
METAR KNBC 251056Z AUTO 25003KT 4SM -RA BR OVC055 17/17 A3000 RMK
AO2 RAB0957 TSB05E20 SLP159 P0057 T01720167





000
SAUS42 KCHS 251050
MTRNBC
SPECI KNBC 251049Z AUTO 28004KT 2SM +RA BR FEW038 OVC049 17/17 A3000
RMK AO2 RAB0957 TSB05E20 P0057 T01720167





000
SAUS42 KCHS 251050
MTRNBC
SPECI KNBC 251049Z AUTO 28004KT 2SM +RA BR FEW038 OVC049 17/17 A3000
RMK AO2 RAB0957 TSB05E20 P0057 T01720167





000
SAUS42 KCHS 251043
MTRNBC
SPECI KNBC 251041Z AUTO 28007KT 3SM RA BR SCT036 OVC050 17/16 A3001
RMK AO2 RAB0957 TSB05E20 PRESRR P0053 T01720161





000
SAUS42 KCHS 251031
MTRNBC
SPECI KNBC 251030Z AUTO 18004KT 3SM RA BR FEW006 BKN028 OVC060 17/17
A3000 RMK AO2 RAB0957 TSB05E20 P0050 T01720167





000
SAUS42 KCHS 251026
MTRNBC
SPECI KNBC 251025Z AUTO 00000KT 1 3/4SM RA BR FEW008 BKN026 OVC060
17/17 A3000 RMK AO2 RAB0957 TSB05E20 P0049 T01720167





000
SAUS42 KCHS 251023
MTRNBC
SPECI KNBC 251021Z AUTO 26003KT 1SM +RA BR FEW008 BKN022 OVC048
17/17 A2999 RMK AO2 RAB0957 TSB05E20 PRESFR P0049 T01720167





000
SAUS42 KCHS 251013
MTRNBC
SPECI KNBC 251011Z AUTO 26007KT 3/4SM +TSRA BR FEW007 BKN015 OVC048
17/17 A3002 RMK AO2 RAB0957 TSB05 P0033 T01720167





000
SAUS42 KCHS 251013
MTRNBC
SPECI KNBC 251011Z AUTO 26007KT 3/4SM +TSRA BR FEW007 BKN015 OVC048
17/17 A3002 RMK AO2 RAB0957 TSB05 P0033 T01720167





000
SAUS42 KCHS 251008
MTRNBC
SPECI KNBC 251007Z AUTO 30008KT 1 1/4SM +TSRA BR FEW007 BKN015
OVC048 17/16 A3001 RMK AO2 RAB0957 TSB05 P0018 T01720161





000
SAUS42 KCHS 251003
MTRNBC
SPECI KNBC 251002Z AUTO 22005KT 2 1/2SM +RA BR SCT009 OVC048 17/16
A3001 RMK AO2 RAB0957 P0004 T01720161





000
SAUS42 KCHS 250957
MTRNBC
METAR KNBC 250956Z AUTO 00000KT 5SM BR FEW011 OVC048 17/16 A3000 RMK
AO2 RAB00E36 SLP161 P0000 T01720161





000
SAUS42 KCHS 250857
MTRNBC
METAR KNBC 250856Z AUTO 29005KT 10SM OVC047 17/16 A2999 RMK AO2
SLP154 60001 T01720161 53001





000
SAUS42 KCHS 250757
MTRNBC
METAR KNBC 250756Z AUTO 31004KT 10SM OVC055 17/16 A2998 RMK AO2
SLP151 T01720156





000
SAUS42 KCHS 250657
MTRNBC
METAR KNBC 250656Z AUTO 19003KT 9SM CLR 17/16 A2996 RMK AO2 RAE20
SLP145 P0001 T01670156





000
SAUS42 KCHS 250557
MTRNBC
METAR KNBC 250556Z AUTO 18004KT 5SM RA BR BKN110 17/16 A2998 RMK AO2
RAE36B42 TSE16B32E47 SLP153 P0006 60018 T01720161 10189 20172 50002





000
SAUS42 KCHS 250554
MTRNBC
SPECI KNBC 250553Z AUTO VRB03KT 5SM -RA BR SCT100 BKN120 17/16 A2999
RMK AO2 RAE36B42 TSE16B32E47 P0005





000
SAUS42 KCHS 250539
MTRNBC
SPECI KNBC 250538Z AUTO 14004KT 10SM TS FEW070 SCT090 BKN110 17/16
A2999 RMK AO2 RAE36 TSE16B32 P0003 T01720161





000
SAUS42 KCHS 250523
MTRNBC
SPECI KNBC 250522Z AUTO 21008KT 4SM RA BR SCT080 BKN095 BKN120 17/16
A3002 RMK AO2 TSE16 P0003 T01720161





000
SAUS42 KCHS 250457
MTRNBC
METAR KNBC 250456Z AUTO 15007KT 8SM -TSRA FEW080 BKN100 18/17 A3000
RMK AO2 TSB01B02 PRESFR SLP159 P0007 T01780167 402440178





000
SAUS42 KCHS 250414
MTRNBC
SPECI KNBC 250413Z AUTO 19007KT 5SM -TSRA BR FEW070 BKN095 18/18
A3001 RMK AO2 TSB01B02 PRESRR P0000 T01830178





000
SAUS42 KCHS 250414
MTRNBC
SPECI KNBC 250413Z AUTO 19007KT 5SM -TSRA BR FEW070 BKN095 18/18
A3001 RMK AO2 TSB01B02 PRESRR P0000 T01830178





000
SAUS42 KCHS 250402
MTRNBC
SPECI KNBC 250401Z AUTO 18005KT 2 1/2SM -TSRA BR FEW038 FEW070
SCT100 18/17 A2999 RMK AO2 TSB01 PRESRR P0000 T01780172





000
SAUS42 KCHS 250357
MTRNBC
METAR KNBC 250356Z 16005KT 3SM -RA BR FEW038 FEW070 BKN095 18/17
A2998 RMK AO2 RAE06B36 SLP151 LAST P0000 T01780172





000
SAUS42 KCHS 250357
MTRNBC
METAR KNBC 250356Z 16005KT 3SM -RA BR FEW038 FEW070 BKN095 18/17
A2998 RMK AO2 RAE06B36 SLP151 LAST P0000 T01780172





000
SAUS42 KCHS 250257
MTRNBC
METAR KNBC 250256Z 18003KT 3SM -RA BR BKN085 BKN120 18/17 A2998 RMK
AO2 SLP152 P0004 60005 T01830172 53009





000
SAUS42 KCHS 250157
MTRNBC
METAR KNBC 250156Z 18004KT 4SM -RA BR BKN075 BKN090 18/18 A2997 RMK
AO2 RAB54 SLP150 P0000 T01830178





000
SAUS42 KCHS 250057
MTRNBC
METAR KNBC 250056Z 14005KT 6SM VCTS BR FEW001 BKN065CB BKN080 18/18
A2994 RMK AO2 RAE48 TSB43E48 SLP140 OCNL LTGICCCCA CB 6E MOV NE
P0001 T01830178





000
SAUS42 KCHS 250050
MTRNBC
SPECI KNBC 250049Z 18005KT 6SM VCTS BR BKN030CB OVC075 18/18 A2996
RMK AO2 RAE48 TSB43E48 P0001 T01830178





000
SAUS42 KCHS 242357
MTRNBC
METAR KNBC 242356Z 22006KT 3SM +RA BR BKN040 OVC075 18/17 A2995 RMK
AO2 SLP143 P0010 60014 T01830172 10244 20178 53024





000
SAUS42 KCHS 242257
MTRNBC
METAR KNBC 242256Z 31009KT 5SM -RA BR BKN047 OVC055 18/17 A2992 RMK
AO2 RAB29 PRESFR SLP131 P0003 T01830172





000
SAUS42 KCHS 242157
MTRNBC
METAR KNBC 242156Z 23004KT 10SM BKN033 OVC075 20/17 A2991 RMK AO2
SLP127 T02000167





000
SAUS42 KCHS 242057
MTRNBC
METAR KNBC 242056Z 27008KT 10SM FEW010 BKN035 OVC048 21/17 A2988 RMK
AO2 SLP119 60001 T02060172 52010





000
SAUS42 KCHS 241957
MTRNBC
METAR KNBC 241956Z 25009KT 10SM FEW010 BKN034 OVC042 22/19 A2987 RMK
AO2 RAE09 SLP115 P0000 T02170194





000
SAUS42 KCHS 241917
MTRNBC
SPECI KNBC 241916Z 22009KT 5SM BR BKN040 OVC048 21/20 A2987 RMK AO2
RAE09 P0000 T02110200





000
SAUS42 KCHS 241858
MTRNBC
METAR KNBC 241856Z 22009KT 2SM -RA BR BKN037 OVC045 22/20 A2987 RMK
AO2 SFC VIS 3 RAB25 SLP113 P0001 T02170200





000
SAUS42 KCHS 241839
MTRNBC
SPECI KNBC 241838Z 24011KT 8SM -RA FEW025 BKN034 OVC047 23/20 A2986
RMK AO2 RAB25 P0000 T02280200





000
SAUS42 KCHS 241830
MTRNBC
SPECI KNBC 241829Z 23015KT 5SM RA BR FEW020 BKN029 OVC047 23/19
A2986 RMK AO2 RAB25 P0000 T02330194





000
SAUS42 KCHS 241804
MTRNBC
SPECI KNBC 241803Z 21011KT 10SM FEW026 SCT046 SCT085 23/21 A2985 RMK
AO2 T02330206





000
SAUS42 KCHS 241757
MTRNBC
METAR KNBC 241756Z 19005KT 10SM BKN020 BKN080 24/21 A2985 RMK AO2
SLP109 T02390206 10244 20189 56012





000
SAUS42 KCHS 241658
MTRNBC
METAR KNBC 241656Z 18012G17KT 10SM FEW006 BKN120 BKN250 23/21 A2986
RMK AO2 SLP112 T02330206





000
SAUS42 KCHS 241639
MTRNBC
SPECI KNBC 241638Z 18007G15KT 4SM BR SCT006 BKN120 23/21 A2987 RMK
AO2 T02330206





000
SAUS42 KCHS 241557
MTRNBC
METAR KNBC 241556Z 17008KT 4SM BR OVC005 21/19 A2987 RMK AO2 SLP115
T02110194





000
SAUS42 KCHS 241543
MTRNBC
SPECI KNBC 241541Z 17008KT 8SM BR OVC005 21/19 A2988 RMK AO2
T02110194





000
SAUS42 KCHS 241528
MTRNBC
SPECI KNBC 241527Z 18007KT 8SM BR OVC004 21/19 A2989 RMK AO2
T02060194





000
SAUS42 KCHS 241457
MTRNBC
METAR KNBC 241456Z 16006KT 3SM BR OVC005 19/18 A2989 RMK AO2 SLP121
T01890178 52010





000
SAUS42 KCHS 241447
MTRNBC
SPECI KNBC 241446Z 16006KT 3SM BR BKN005 OVC012 20/19 A2988 RMK AO2
T02000189





000
SAUS42 KCHS 241357
MTRNBC
METAR KNBC 241356Z 18007KT 7SM BR OVC004 21/19 A2988 RMK AO2 SLP119
T02060194





000
SAUS42 KCHS 241257
MTRNBC
METAR KNBC 241256Z 17007KT 3SM BR BKN005 OVC010 21/19 A2987 RMK AO2
SLP114 T02060194





000
SAUS42 KCHS 241233
MTRNBC
SPECI KNBC 241232Z 19006KT 3SM BR OVC005 21/19 A2987 RMK AO2
T02060194





000
SAUS42 KCHS 241221
MTRNBC
SPECI KNBC 241220Z 20006KT 3SM BR OVC006 21/19 A2987 RMK AO2
T02060194





000
SAUS42 KCHS 241216
MTRNBC
SPECI KNBC 241215Z 20007KT 6SM BR OVC006 21/19 A2986 RMK AO2 CIG
004V010 T02060194





000
SAUS42 KCHS 241157
MTRNBC
METAR KNBC 241156Z 19007KT 3SM BR OVC005 21/19 A2986 RMK AO2 SLP111
60001 70190 T02060194 10206 20178 53008





000
SAUS42 KCHS 241141
MTRNBC
SPECI KNBC 241140Z 19007KT 6SM BR OVC005 21/19 A2986 RMK AO2 FIRST
T02060194 $





000
SAUS42 KCHS 241131
MTRNBC
SPECI KNBC 241130Z 20006KT 6SM BR OVC006 21/19 A2986 RMK AO2 FIRST
T02060194 $





000
SAUS42 KCHS 241057
MTRNBC
METAR KNBC 241056Z AUTO 19006KT 9SM OVC007 21/19 A2985 RMK AO2 CIG
006V010 SLP109 T02060194 $





000
SAUS42 KCHS 241012
MTRNBC
SPECI KNBC 241011Z AUTO 20007KT 9SM BKN006 BKN010 OVC018 20/19 A2984
RMK AO2 CIG 004V008 T02000189 $





000
SAUS42 KCHS 241005
MTRNBC
SPECI KNBC 241003Z AUTO 19006KT 8SM SCT005 BKN010 OVC018 20/19 A2984
RMK AO2 T02000189 $





000
SAUS42 KCHS 241005
MTRNBC
SPECI KNBC 241003Z AUTO 19006KT 8SM SCT005 BKN010 OVC018 20/19 A2984
RMK AO2 T02000189 $





000
SAUS42 KCHS 240957
MTRNBC
METAR KNBC 240956Z AUTO 20005KT 8SM SCT005 OVC018 19/19 A2984 RMK
AO2 SLP104 T01940189 $





000
SAUS42 KCHS 240935
MTRNBC
SPECI KNBC 240933Z AUTO 19005KT 10SM FEW008 BKN018 OVC065 19/19
A2983 RMK AO2 T01940189 $





000
SAUS42 KCHS 240916
MTRNBC
SPECI KNBC 240915Z AUTO 19005KT 10SM FEW025 BKN065 BKN110 19/18
A2983 RMK AO2 T01940183 $





000
SAUS42 KCHS 240857
MTRNBC
METAR KNBC 240856Z AUTO VRB03KT 10SM SCT014 SCT019 BKN028 19/18
A2984 RMK AO2 SLP103 60001 T01890183 56008 $





000
SAUS42 KCHS 240831
MTRNBC
SPECI KNBC 240830Z AUTO 20007KT 10SM SCT016 BKN027 OVC033 19/18
A2983 RMK AO2 T01940183 $





000
SAUS42 KCHS 240757
MTRNBC
METAR KNBC 240756Z AUTO 19006KT 10SM FEW016 OVC037 19/18 A2984 RMK
AO2 SLP104 T01890183 $





000
SAUS42 KCHS 240747
MTRNBC
SPECI KNBC 240746Z AUTO 20005KT 9SM SCT016 BKN032 OVC039 19/18 A2983
RMK AO2 T01890183 $





000
SAUS42 KCHS 240729
MTRNBC
SPECI KNBC 240728Z AUTO 19005KT 6SM BR SCT002 BKN017 OVC039 19/18
A2983 RMK AO2 T01890183 $





000
SAUS42 KCHS 240707
MTRNBC
SPECI KNBC 240706Z AUTO 20003KT 3SM BR OVC002 19/18 A2984 RMK AO2
T01890183 $





000
SAUS42 KCHS 240657
MTRNBC
METAR KNBC 240656Z AUTO 19003KT 2SM BR BKN002 18/18 A2983 RMK AO2
RAE17 SLP102 P0001 T01830178 $





000
SAUS42 KCHS 240649
MTRNBC
SPECI KNBC 240648Z AUTO 17003KT 2SM BR BKN002 18/17 A2983 RMK AO2
RAE17 P0001 T01830172 $





000
SAUS42 KCHS 240635
MTRNBC
SPECI KNBC 240633Z AUTO 15004KT 2 1/2SM BR FEW002 SCT055 18/17 A2983
RMK AO2 RAE17 P0001 T01830172 $





000
SAUS42 KCHS 240620
MTRNBC
SPECI KNBC 240619Z AUTO 16003KT 6SM BR SCT027 BKN055 19/18 A2983 RMK
AO2 RAE17 P0001 T01890178 $





000
SAUS42 KCHS 240557
MTRNBC
METAR KNBC 240556Z AUTO 24005KT 10SM -RA OVC026 19/18 A2986 RMK AO2
RAB55 TSB07E22 SLP111 P0000 60060 T01940183 10211 20189 55004 $





000
SAUS42 KCHS 240547
MTRNBC
SPECI KNBC 240546Z AUTO 27004KT 10SM OVC029 19/18 A2985 RMK AO2
TSB07E22 T01940183 $





000
SAUS42 KCHS 240529
MTRNBC
SPECI KNBC 240528Z AUTO 23004KT 10SM SCT029 BKN035 19/18 A2985 RMK
AO2 TSB07E22 PRESRR T01940183 $





000
SAUS42 KCHS 240514
MTRNBC
SPECI KNBC 240513Z AUTO 18003KT 10SM TS FEW036 19/18 A2984 RMK AO2
TSB07 T01890183 $





000
SAUS42 KCHS 240457
MTRNBC
METAR KNBC 240456Z AUTO 19006KT 10SM CLR 19/18 A2983 RMK AO2 SLP102
T01890183 402110139 $





000
SAUS42 KCHS 240357
MTRNBC
METAR KNBC 240356Z AUTO 24006KT 9SM CLR 19/18 A2982 RMK AO2 RAE25
SLP100 P0002 T01890183 $





000
SAUS42 KCHS 240257
MTRNBC
METAR KNBC 240256Z AUTO 22004KT 10SM -RA FEW050 SCT090 BKN110 20/19
A2987 RMK AO2 PK WND 29028/0228 WSHFT 0213 RAB22 TSB13B18E50 PRESFR
SLP115 P0023 60058 T02000189 53003 $





000
SAUS42 KCHS 240243
MTRNBC
SPECI KNBC 240242Z AUTO 27009G17KT 9SM -TSRA SCT008 BKN080 OVC110
21/19 A2989 RMK AO2 PK WND 29028/0228 WSHFT 0213 RAB22 TSB13B18
P0023 T02060194 $





000
SAUS42 KCHS 240236
MTRNBC
SPECI KNBC 240235Z AUTO 27012G28KT 2SM -TSRA BR SCT008 BKN028 OVC080
21/19 A2990 RMK AO2 PK WND 29028/0228 WSHFT 0213 RAB22 TSB13B18
P0022 T02060194 $





000
SAUS42 KCHS 240230
MTRNBC
SPECI KNBC 240229Z AUTO 28018G28KT 1 1/2SM +TSRA BR SCT008 BKN018
OVC034 21/20 A2991 RMK AO2 PK WND 29028/0228 WSHFT 0213 RAB22
TSB13B18 P0022 T02110200 $





000
SAUS42 KCHS 240228
MTRNBC
SPECI KNBC 240227Z AUTO 26015KT 1 3/4SM +TSRA BR BKN008 BKN016
OVC038 21/20 A2993 RMK AO2 WSHFT 0213 RAB22 TSB13B18 PRESRR P0021
T02110200 $





000
SAUS42 KCHS 240226
MTRNBC
SPECI KNBC 240225Z AUTO 27015KT 3SM +TSRA BR BKN008 BKN032 OVC040
21/20 A2993 RMK AO2 RAB22 TSB13B18 PRESRR P0014 T02110200 $





000
SAUS42 KCHS 240220
MTRNBC
SPECI KNBC 240219Z AUTO 25015KT 8SM TS SCT008 BKN032 OVC040 21/20
A2990 RMK AO2 TSB13B18 PRESRR T02110200 $





000
SAUS42 KCHS 240204
MTRNBC
SPECI KNBC 240203Z AUTO 18008G16KT 7SM SCT008 BKN035 OVC090 21/20
A2988 RMK AO2 T02110200 $





000
SAUS42 KCHS 240157
MTRNBC
METAR KNBC 240156Z AUTO 20010G16KT 7SM BKN008 BKN035 OVC095 21/20
A2987 RMK AO2 SLP117 T02060200 $





000
SAUS42 KCHS 240157
MTRNBC
METAR KNBC 240156Z AUTO 20010G16KT 7SM BKN008 BKN035 OVC095 21/20
A2987 RMK AO2 SLP117 T02060200 $





000
SAUS42 KCHS 240058
MTRNBC
METAR KNBC 240056Z AUTO 18008KT 6SM BR BKN008 21/20 A2985 RMK AO2
RAE24 TSB2357E25 SLP107 P0035 T02110200 $





000
SAUS42 KCHS 240053
MTRNBC
SPECI KNBC 240052Z AUTO 19006KT 6SM BR BKN008 21/20 A2985 RMK AO2
RAE24 TSB2357E25 CIG 005V012 P0035 $





000
SAUS42 KCHS 240040
MTRNBC
SPECI KNBC 240039Z AUTO 19007G14KT 8SM SCT008 SCT015 21/21 A2984 RMK
AO2 RAE24 TSB2357E25 P0035 T02110206 $





000
SAUS42 KCHS 240026
MTRNBC
SPECI KNBC 240025Z AUTO 18008KT 10SM FEW006 SCT010 BKN013 21/21
A2985 RMK AO2 RAE24 TSB2357E25 P0035 T02110206 $





000
SAUS42 KCHS 240023
MTRNBC
SPECI KNBC 240021Z AUTO 19007KT 6SM -TSRA BR SCT006 BKN015 BKN031
21/21 A2985 RMK AO2 TSB2357 P0035 T02110206 $





000
SAUS42 KCHS 240018
MTRNBC
SPECI KNBC 240017Z AUTO 20009KT 2SM -TSRA BR BKN006 BKN016 OVC040
21/21 A2985 RMK AO2 TSB2357 P0035 T02110206 $





000
SAUS42 KCHS 240016
MTRNBC
SPECI KNBC 240015Z AUTO 20007KT 1 1/2SM TSRA BR BKN006 BKN016 OVC030
21/21 A2985 RMK AO2 TSB2357 P0035 T02110206 $





000
SAUS42 KCHS 240014
MTRNBC
SPECI KNBC 240013Z AUTO 21007KT 1SM +TSRA BR BKN004 OVC016 21/21
A2985 RMK AO2 TSB2357 P0035 T02110206 $





000
SAUS42 KCHS 240011
MTRNBC
SPECI KNBC 240010Z AUTO 23009G18KT 1/2SM +TSRA FG BKN004 BKN014
OVC029 21/21 A2985 RMK AO2 TSB2357 P0034 T02110206 $





000
SAUS42 KCHS 240003
MTRNBC
SPECI KNBC 240002Z AUTO 20012G18KT 3/4SM +TSRA BR BKN004 OVC010
21/21 A2985 RMK AO2 TSB2357 P0020 T02110206 $





000
SAUS42 KCHS 240001
MTRNBC
SPECI KNBC 240000Z AUTO 21011G18KT 1 1/2SM -TSRA BR OVC004 21/21
A2986 RMK AO2 TSB2357 P0010 T02110206 $





000
SAUS42 KCHS 232359
MTRNBC
SPECI KNBC 232358Z AUTO 21010KT 2 1/2SM -TSRA BR OVC004 21/21 A2987
RMK AO2 TSB57 CIG 003V007 PRESRR P0003 T02110206 $





000
SAUS42 KCHS 232357
MTRNBC
METAR KNBC 232356Z AUTO 21010KT 3SM -RA BR OVC004 21/20 A2986 RMK
AO2 TSE06 CIG 003V007 SLP112 P0008 60051 T02110200 10211 20183 55003
$





000
SAUS42 KCHS 232350
MTRNBC
SPECI KNBC 232348Z AUTO 19006KT 3SM RA BR OVC004 21/20 A2984 RMK AO2
TSE06 P0007 T02110200 $





000
SAUS42 KCHS 232317
MTRNBC
SPECI KNBC 232316Z AUTO 17005KT 3SM +RA BR BKN005 OVC012 21/19 A2984
RMK AO2 TSE06 P0005 T02060194 $





000
SAUS42 KCHS 232308
MTRNBC
SPECI KNBC 232307Z AUTO 16005KT 2SM RA BR BKN004 OVC011 20/19 A2984
RMK AO2 TSE06 P0002 T02000194 $





000
SAUS42 KCHS 232300
MTRNBC
SPECI KNBC 232259Z AUTO 17004KT 2SM -TSRA BR BKN004 BKN011 OVC034
19/19 A2984 RMK AO2 P0000 T01940189 $





000
SAUS42 KCHS 232257
MTRNBC
METAR KNBC 232256Z AUTO 15004KT 1 1/4SM -TSRA BR BKN004 BKN011
OVC034 19/19 A2984 RMK AO2 RAB18 TSB19E33B36 SLP105 OCNL LTGICCCCG
TS OVHD MOV NE P0027 T01940189 $





000
SAUS42 KCHS 232250
MTRNBC
SPECI KNBC 232248Z AUTO 14004KT 1SM +TSRA BR BKN004 OVC009 19/19
A2984 RMK AO2 RAB18 TSB19E33B36 OCNL LTGICCCCG TS OVHD MOV NE P0025
T01940189 $





000
SAUS42 KCHS 232250
MTRNBC
SPECI KNBC 232248Z AUTO 14004KT 1SM +TSRA BR BKN004 OVC009 19/19
A2984 RMK AO2 RAB18 TSB19E33B36 OCNL LTGICCCCG TS OVHD MOV NE P0025
T01940189 $





000
SAUS42 KCHS 232245
MTRNBC
SPECI KNBC 232244Z AUTO 16004KT 1 3/4SM TSRA BR OVC004 19/19 A2984
RMK AO2 RAB18 TSB19E33B36 OCNL LTGICCCCG TS OVHD MOV NE P0015
T01940189 $





000
SAUS42 KCHS 232245
MTRNBC
SPECI KNBC 232244Z AUTO 16004KT 1 3/4SM TSRA BR OVC004 19/19 A2984
RMK AO2 RAB18 TSB19E33B36 OCNL LTGICCCCG TS OVHD MOV NE P0015
T01940189 $





000
SAUS42 KCHS 232233
MTRNBC
SPECI KNBC 232232Z AUTO 14003KT 3SM -TSRA BR OVC004 19/19 A2983 RMK
AO2 RAB18 TSB19 OCNL LTGICCCCG TS OVHD MOV NE P0010 T01940189 $





000
SAUS42 KCHS 232233
MTRNBC
SPECI KNBC 232232Z AUTO 14003KT 3SM -TSRA BR OVC004 19/19 A2983 RMK
AO2 RAB18 TSB19 OCNL LTGICCCCG TS OVHD MOV NE P0010 T01940189 $





000
SAUS42 KCHS 232231
MTRNBC
SPECI KNBC 232230Z AUTO 14003KT 1 3/4SM -TSRA BR OVC004 19/19 A2983
RMK AO2 RAB18 TSB19 OCNL LTGICCCCG TS OVHD MOV NE P0010 T01940189 $





000
SAUS42 KCHS 232226
MTRNBC
SPECI KNBC 232225Z 14004KT 1SM TSRA BR OVC004 19/19 A2984 RMK AO2
TWR VIS 2 RAB18 TSB19 OCNL LTGICCCCG TS OVHD MOV NE P0010 T01940189
$





000
SAUS42 KCHS 232226
MTRNBC
SPECI KNBC 232225Z 14004KT 1SM TSRA BR OVC004 19/19 A2984 RMK AO2
TWR VIS 2 RAB18 TSB19 OCNL LTGICCCCG TS OVHD MOV NE P0010 T01940189
$





000
SAUS42 KCHS 232157
MTRNBC
METAR KNBC 232156Z 13004KT 9SM OVC005 19/19 A2985 RMK AO2 CIG
004V009 SLP107 T01940189 $





000
SAUS42 KCHS 232157
MTRNBC
METAR KNBC 232156Z 13004KT 9SM OVC005 19/19 A2985 RMK AO2 CIG
004V009 SLP107 T01940189 $





000
SAUS42 KCHS 232117
MTRNBC
SPECI KNBC 232116Z 12004KT 10SM BKN005 OVC014 19/19 A2987 RMK AO2
T01940189 $





000
SAUS42 KCHS 232058
MTRNBC
METAR KNBC 232056Z 14005KT 10SM BKN006 OVC013 19/19 A2987 RMK AO2
SLP116 60016 T01940189 56030 $





000
SAUS42 KCHS 232046
MTRNBC
SPECI KNBC 232045Z VRB04KT 10SM BKN006 OVC013 19/19 A2988 RMK AO2
FIRST T01940189 $





000
SAUS42 KCHS 232038
MTRNBC
SPECI KNBC 232037Z AUTO 14004KT 10SM BKN007 OVC015 19/18 A2988 RMK
AO2 T01940183 $





000
SAUS42 KCHS 231957
MTRNBC
METAR KNBC 231956Z AUTO 12015G23KT 10SM SCT007 OVC017 19/18 A2989
RMK AO2 RAE27 SLP121 P0001 T01940183 $





000
SAUS42 KCHS 231957
MTRNBC
METAR KNBC 231956Z AUTO 12015G23KT 10SM SCT007 OVC017 19/18 A2989
RMK AO2 RAE27 SLP121 P0001 T01940183 $





000
SAUS42 KCHS 231916
MTRNBC
SPECI KNBC 231915Z AUTO 13012G25KT 3SM -RA BR OVC007 19/18 A2990 RMK
AO2 CIG 004V009 P0001 T01940183 $





000
SAUS42 KCHS 231857
MTRNBC
METAR KNBC 231856Z AUTO 12009KT 3SM -RA BR OVC005 19/18 A2992 RMK
AO2 SLP131 P0015 T01890183 $





000
SAUS42 KCHS 231845
MTRNBC
SPECI KNBC 231844Z AUTO 11011KT 2SM RA BR BKN005 OVC011 19/18 A2992
RMK AO2 P0014 T01890178 $





000
SAUS42 KCHS 231817
MTRNBC
SPECI KNBC 231816Z AUTO 10009KT 1 3/4SM RA BR BKN005 BKN010 OVC015
18/18 A2994 RMK AO2 P0004 T01830178 $





000
SAUS42 KCHS 231810
MTRNBC
SPECI KNBC 231809Z AUTO 10010KT 5SM -RA BR BKN005 OVC013 18/18 A2995
RMK AO2 P0000 T01830178 $





000
SAUS42 KCHS 231757
MTRNBC
METAR KNBC 231756Z AUTO 10009KT 3SM -RA BR SCT005 OVC013 18/17 A2996
RMK AO2 PRESFR SLP146 P0015 60078 T01830172 10183 20150 58038 $





000
SAUS42 KCHS 231748
MTRNBC
SPECI KNBC 231747Z AUTO 11008KT 2SM RA BR BKN005 OVC011 18/17 A2998
RMK AO2 P0014 T01780172 $





000
SAUS42 KCHS 231726
MTRNBC
SPECI KNBC 231725Z AUTO 11009KT 1 1/2SM +RA BR BKN005 OVC010 18/17
A3000 RMK AO2 P0007 T01780172 $





000
SAUS42 KCHS 231714
MTRNBC
SPECI KNBC 231713Z AUTO 09011KT 2 1/2SM RA BR BKN005 OVC020 18/17
A3000 RMK AO2 P0002 T01830172 $





000
SAUS42 KCHS 231657
MTRNBC
METAR KNBC 231656Z AUTO 10007KT 2 1/2SM RA BR BKN004 OVC047 18/17
A3001 RMK AO2 SLP161 P0008 T01780167 $





000
SAUS42 KCHS 231645
MTRNBC
SPECI KNBC 231644Z AUTO 09006KT 5SM -RA BR BKN004 BKN046 OVC060
17/17 A3002 RMK AO2 P0005 T01720167 $





000
SAUS42 KCHS 231557
MTRNBC
METAR KNBC 231556Z AUTO 09011KT 8SM -RA OVC005 17/16 A3006 RMK AO2
RAE22B47 CIG 003V009 SLP178 P0004 T01670156 $





000
SAUS42 KCHS 231538
MTRNBC
SPECI KNBC 231537Z AUTO 09011G19KT 10SM OVC004 17/16 A3004 RMK AO2
RAE22 P0003 T01670156 $





000
SAUS42 KCHS 231538
MTRNBC
SPECI KNBC 231537Z AUTO 09011G19KT 10SM OVC004 17/16 A3004 RMK AO2
RAE22 P0003 T01670156 $





000
SAUS42 KCHS 231520
MTRNBC
SPECI KNBC 231519Z AUTO 08010KT 8SM -RA BKN003 BKN030 OVC046 16/15
A3006 RMK AO2 P0003 T01610150 $





000
SAUS42 KCHS 231513
MTRNBC
SPECI KNBC 231511Z AUTO 08011KT 3SM -RA BR SCT004 BKN034 OVC060
16/15 A3007 RMK AO2 P0003 T01560150 $





000
SAUS42 KCHS 231501
MTRNBC
SPECI KNBC 231500Z AUTO 07010KT 1 3/4SM +RA BR FEW008 SCT045 OVC060
16/14 A3006 RMK AO2 PRESFR P0002 T01560144 $





000
SAUS42 KCHS 231457
MTRNBC
METAR KNBC 231456Z AUTO 08010G15KT 2 1/2SM +RA BR FEW028 BKN041
OVC060 16/14 A3007 RMK AO2 PRESFR SLP183 P0017 60051 T01560144 56014
$





000
SAUS42 KCHS 231439
MTRNBC
SPECI KNBC 231438Z AUTO 07007KT 050V110 3SM -RA BR SCT006 BKN035
OVC060 16/14 A3010 RMK AO2 P0015 T01560144 $





000
SAUS42 KCHS 231436
MTRNBC
SPECI KNBC 231435Z AUTO 06008KT 1 3/4SM -RA BR SCT006 BKN028 OVC060
16/14 A3010 RMK AO2 P0014 T01560144 $





000
SAUS42 KCHS 231426
MTRNBC
SPECI KNBC 231425Z AUTO 07009G14KT 1 1/2SM +RA BR BKN004 BKN015
OVC022 15/14 A3009 RMK AO2 P0011 T01500144 $





000
SAUS42 KCHS 231418
MTRNBC
SPECI KNBC 231417Z AUTO 08006KT 2SM +RA BR OVC004 15/14 A3010 RMK
AO2 P0006 T01500144 $





000
SAUS42 KCHS 231358
MTRNBC
METAR KNBC 231356Z AUTO 05010G16KT 3SM -RA BR OVC005 15/14 A3008 RMK
AO2 SLP185 P0018 T01500139 $





000
SAUS42 KCHS 231351
MTRNBC
SPECI KNBC 231349Z AUTO 07009KT 3SM RA BR OVC005 15/14 A3009 RMK AO2
P0017 T01500139 $





000
SAUS42 KCHS 231339
MTRNBC
SPECI KNBC 231338Z AUTO 06009G19KT 2 1/2SM RA BR BKN005 OVC044 15/14
A3009 RMK AO2 P0015 T01500139 $





000
SAUS42 KCHS 231327
MTRNBC
SPECI KNBC 231326Z AUTO 06010G19KT 2SM +RA BR BKN006 OVC046 15/14
A3009 RMK AO2 P0009 T01500139 $





000
SAUS42 KCHS 231257
MTRNBC
METAR KNBC 231256Z AUTO 06011G19KT 4SM RA BR BKN006 OVC015 15/14
A3009 RMK AO2 SLP191 P0016 T01500139 $





000
SAUS42 KCHS 231226
MTRNBC
SPECI KNBC 231225Z AUTO 06012KT 4SM RA BR BKN006 OVC015 16/14 A3011
RMK AO2 P0010 T01560144 $





000
SAUS42 KCHS 231158
MTRNBC
METAR KNBC 231156Z AUTO 06009KT 4SM +RA BR OVC005 16/14 A3011 RMK
AO2 SLP198 P0018 60037 70038 T01560144 10156 20139 58004 $





000
SAUS42 KCHS 231153
MTRNBC
SPECI KNBC 231152Z AUTO 05009KT 4SM +RA BR OVC005 16/14 A3012 RMK
AO2 P0017 $





000
SAUS42 KCHS 231123
MTRNBC
SPECI KNBC 231121Z AUTO 06007KT 5SM RA BR BKN006 OVC017 16/14 A3012
RMK AO2 P0006 T01560144 $





000
SAUS42 KCHS 231057
MTRNBC
METAR KNBC 231056Z AUTO 05010KT 5SM RA BR FEW007 BKN019 OVC024 16/14
A3013 RMK AO2 SLP202 P0009 T01560144 $





000
SAUS42 KCHS 231042
MTRNBC
SPECI KNBC 231041Z AUTO 06009KT 7SM -RA BKN021 OVC034 16/14 A3013
RMK AO2 P0007 T01560144 $





000
SAUS42 KCHS 230957
MTRNBC
METAR KNBC 230956Z AUTO 06009KT 8SM -RA FEW028 OVC048 15/14 A3013
RMK AO2 SLP202 P0005 T01500139 $





000
SAUS42 KCHS 230957
MTRNBC
METAR KNBC 230956Z AUTO 06009KT 8SM -RA FEW028 OVC048 15/14 A3013
RMK AO2 SLP202 P0005 T01500139 $





    US Dept of Commerce
    National Oceanic and Atmospheric Administration
    National Weather Service
    1325 East West Highway
    Silver Spring, MD 20910
    Page Author: NWS Internet Services Team
Disclaimer
Information Quality
Credits
Glossary
Privacy Policy
Freedom of Information Act (FOIA)
About Us
Career Opportunities